createdAt,value
2022-11-15T00:00:31.381Z,82.64
2022-11-15T00:03:15.046Z,82.62
2022-11-15T00:05:50.172Z,82.89
2022-11-15T00:08:30.709Z,82.76
2022-11-15T00:11:04.411Z,82.68
2022-11-15T00:13:38.532Z,82.98
2022-11-15T00:16:12.692Z,82.61
2022-11-15T00:18:50.415Z,82.52
2022-11-15T00:21:22.401Z,82.35
2022-11-15T00:23:54.050Z,81.99
2022-11-15T00:26:27.704Z,82.22
2022-11-15T00:29:01.744Z,82.34
2022-11-15T00:31:33.431Z,82.48
2022-11-15T00:34:05.097Z,82.48
2022-11-15T00:36:45.043Z,82.57
2022-11-15T00:39:21.321Z,82.64
2022-11-15T00:41:53.926Z,82.32
2022-11-15T00:44:25.581Z,82.27
2022-11-15T00:46:58.472Z,82.19
2022-11-15T00:49:32.364Z,82.19
2022-11-15T00:52:09.099Z,82.08
2022-11-15T00:54:41.993Z,81.84
2022-11-15T00:57:15.092Z,81.82
2022-11-15T00:59:46.781Z,81.55
2022-11-15T01:02:22.266Z,81.57
2022-11-15T01:04:56.708Z,81.68
2022-11-15T01:07:28.373Z,81.38
2022-11-15T01:10:00.672Z,81.18
2022-11-15T01:12:33.246Z,80.99
2022-11-15T01:15:05.054Z,81.33
2022-11-15T01:17:38.471Z,81.25
2022-11-15T01:20:12.105Z,81.14
2022-11-15T01:22:46.534Z,80.80
2022-11-15T01:25:20.740Z,81.18
2022-11-15T01:27:57.420Z,81.07
2022-11-15T01:30:31.415Z,80.79
2022-11-15T01:33:06.893Z,80.81
2022-11-15T01:35:44.394Z,80.74
2022-11-15T01:38:16.093Z,80.85
2022-11-15T01:40:51.579Z,81.27
2022-11-15T01:43:26.577Z,81.28
2022-11-15T01:46:02.904Z,81.56
2022-11-15T01:48:36.630Z,81.21
2022-11-15T01:51:16.786Z,81.03
2022-11-15T01:53:53.223Z,80.96
2022-11-15T01:56:28.703Z,80.73
2022-11-15T01:59:03.878Z,80.78
2022-11-15T02:01:37.291Z,81.00
2022-11-15T02:04:14.429Z,81.54
2022-11-15T02:06:55.624Z,81.59
2022-11-15T02:09:32.584Z,81.65
2022-11-15T02:12:04.595Z,81.59
2022-11-15T02:14:38.280Z,81.45
2022-11-15T02:17:21.896Z,81.09
2022-11-15T02:20:34.539Z,81.03
2022-11-15T02:23:43.699Z,81.06
2022-11-15T02:26:56.043Z,80.78
2022-11-15T02:29:51.650Z,80.62
2022-11-15T02:32:34.612Z,80.65
2022-11-15T02:35:21.724Z,80.32
2022-11-15T02:38:00.245Z,79.76
2022-11-15T02:40:41.108Z,80.06
2022-11-15T02:43:34.996Z,80.51
2022-11-15T02:46:15.355Z,80.39
2022-11-15T02:48:47.685Z,80.10
2022-11-15T02:51:24.767Z,80.20
2022-11-15T02:53:56.584Z,80.39
2022-11-15T02:56:30.631Z,80.43
2022-11-15T02:59:16.053Z,80.42
2022-11-15T03:02:09.872Z,80.33
2022-11-15T03:04:53.421Z,80.29
2022-11-15T03:07:33.734Z,80.13
2022-11-15T03:10:19.838Z,80.03
2022-11-15T03:12:59.910Z,79.93
2022-11-15T03:15:35.483Z,79.84
2022-11-15T03:18:19.793Z,79.91
2022-11-15T03:20:58.254Z,79.96
2022-11-15T03:23:33.927Z,79.87
2022-11-15T03:26:16.090Z,79.79
2022-11-15T03:28:54.950Z,79.73
2022-11-15T03:31:51.503Z,79.69
2022-11-15T03:34:37.407Z,79.65
2022-11-15T03:37:11.701Z,79.59
2022-11-15T03:39:47.967Z,79.49
2022-11-15T03:42:27.086Z,79.58
2022-11-15T03:45:15.602Z,79.54
2022-11-15T03:47:53.104Z,79.25
2022-11-15T03:50:31.222Z,79.28
2022-11-15T03:53:03.207Z,79.33
2022-11-15T03:55:35.632Z,79.30
2022-11-15T03:58:11.683Z,79.29
2022-11-15T04:00:43.569Z,79.64
2022-11-15T04:03:15.239Z,79.68
2022-11-15T04:05:49.234Z,79.51
2022-11-15T04:08:21.700Z,79.56
2022-11-15T04:10:56.027Z,79.40
2022-11-15T04:13:29.922Z,79.42
2022-11-15T04:16:03.846Z,79.33
2022-11-15T04:18:36.604Z,79.15
2022-11-15T04:21:27.715Z,78.88
2022-11-15T04:24:15.371Z,78.89
2022-11-15T04:26:49.674Z,78.99
2022-11-15T04:29:37.640Z,79.20
2022-11-15T04:32:12.751Z,79.29
2022-11-15T04:34:44.853Z,79.34
2022-11-15T04:37:17.227Z,79.13
2022-11-15T04:39:49.009Z,79.12
2022-11-15T04:42:23.236Z,78.86
2022-11-15T04:44:57.769Z,78.63
2022-11-15T04:47:30.756Z,78.63
2022-11-15T04:50:10.714Z,78.70
2022-11-15T04:52:43.219Z,78.98
2022-11-15T04:55:15.858Z,78.84
2022-11-15T04:57:47.491Z,79.03
2022-11-15T05:00:22.210Z,79.22
2022-11-15T05:03:12.242Z,79.35
2022-11-15T05:05:43.994Z,79.32
2022-11-15T05:08:15.606Z,79.20
2022-11-15T05:10:47.287Z,79.02
2022-11-15T05:13:19.280Z,78.77
2022-11-15T05:15:51.187Z,78.64
2022-11-15T05:18:23.913Z,78.64
2022-11-15T05:20:55.734Z,78.76
2022-11-15T05:23:27.398Z,78.94
2022-11-15T05:26:07.866Z,78.84
2022-11-15T05:28:41.168Z,79.05
2022-11-15T05:31:14.468Z,79.15
2022-11-15T05:33:48.047Z,79.12
2022-11-15T05:36:23.966Z,78.94
2022-11-15T05:38:56.789Z,79.02
2022-11-15T05:41:35.921Z,79.37
2022-11-15T05:44:14.434Z,79.37
2022-11-15T05:46:54.590Z,79.68
2022-11-15T05:49:31.787Z,79.64
2022-11-15T05:52:05.167Z,79.56
2022-11-15T05:54:37.992Z,79.70
2022-11-15T05:57:10.052Z,79.52
2022-11-15T05:59:42.199Z,79.81
2022-11-15T06:02:14.188Z,79.67
2022-11-15T06:04:45.871Z,79.80
2022-11-15T06:07:17.629Z,79.72
2022-11-15T06:09:49.449Z,79.75
2022-11-15T06:12:21.109Z,79.84
2022-11-15T06:14:52.740Z,79.70
2022-11-15T06:17:24.398Z,79.82
2022-11-15T06:19:56.185Z,79.77
2022-11-15T06:22:27.903Z,79.81
2022-11-15T06:25:05.004Z,79.79
2022-11-15T06:27:37.397Z,79.83
2022-11-15T06:30:14.563Z,79.90
2022-11-15T06:32:46.285Z,79.98
2022-11-15T06:35:18.212Z,79.89
2022-11-15T06:37:50.003Z,79.90
2022-11-15T06:40:21.858Z,79.98
2022-11-15T06:43:00.699Z,79.94
2022-11-15T06:45:34.632Z,80.00
2022-11-15T06:48:07.056Z,80.19
2022-11-15T06:50:38.704Z,79.98
2022-11-15T06:53:10.413Z,79.99
2022-11-15T06:55:42.359Z,80.05
2022-11-15T06:58:14.127Z,79.75
2022-11-15T07:00:46.219Z,79.95
2022-11-15T07:03:18.040Z,79.80
2022-11-15T07:05:56.832Z,79.85
2022-11-15T07:08:30.860Z,79.78
2022-11-15T07:11:04.456Z,79.67
2022-11-15T07:13:43.402Z,79.54
2022-11-15T07:16:15.195Z,79.61
2022-11-15T07:18:46.900Z,79.79
2022-11-15T07:21:19.128Z,79.65
2022-11-15T07:23:53.437Z,79.69
2022-11-15T07:26:26.665Z,79.68
2022-11-15T07:28:58.464Z,79.80
2022-11-15T07:31:30.614Z,79.85
2022-11-15T07:34:03.493Z,79.71
2022-11-15T07:36:35.407Z,79.75
2022-11-15T07:39:07.792Z,79.73
2022-11-15T07:41:39.648Z,79.63
2022-11-15T07:44:11.748Z,79.41
2022-11-15T07:46:43.407Z,79.03
2022-11-15T07:49:15.232Z,79.07
2022-11-15T07:51:47.502Z,78.74
2022-11-15T07:54:19.371Z,78.75
2022-11-15T07:56:51.976Z,78.64
2022-11-15T07:59:23.708Z,78.69
2022-11-15T08:01:55.394Z,79.10
2022-11-15T08:04:27.494Z,78.79
2022-11-15T08:06:59.929Z,78.62
2022-11-15T08:09:32.285Z,78.63
2022-11-15T08:12:04.338Z,79.03
2022-11-15T08:14:36.715Z,78.86
2022-11-15T08:17:08.847Z,78.88
2022-11-15T08:19:40.764Z,79.00
2022-11-15T08:22:12.373Z,79.03
2022-11-15T08:24:44.066Z,78.76
2022-11-15T08:27:16.937Z,78.48
2022-11-15T08:29:49.611Z,78.64
2022-11-15T08:32:21.336Z,78.58
2022-11-15T08:34:53.018Z,78.54
2022-11-15T08:37:24.752Z,78.35
2022-11-15T08:39:56.441Z,78.11
2022-11-15T08:42:28.230Z,78.09
2022-11-15T08:44:59.948Z,78.03
2022-11-15T08:47:32.273Z,78.03
2022-11-15T08:50:04.453Z,77.76
2022-11-15T08:52:42.349Z,77.68
2022-11-15T08:55:16.835Z,77.06
2022-11-15T08:57:49.443Z,77.13
2022-11-15T09:00:25.515Z,77.64
2022-11-15T09:02:57.280Z,77.74
2022-11-15T09:05:29.726Z,78.00
2022-11-15T09:08:18.799Z,77.79
2022-11-15T09:10:54.206Z,77.71
2022-11-15T09:13:26.260Z,77.56
2022-11-15T09:16:01.236Z,77.51
2022-11-15T09:18:48.089Z,77.10
2022-11-15T09:21:25.716Z,76.83
2022-11-15T09:23:58.627Z,77.26
2022-11-15T09:26:30.365Z,77.16
2022-11-15T09:29:02.435Z,77.08
2022-11-15T09:31:34.567Z,76.92
2022-11-15T09:34:06.293Z,76.98
2022-11-15T09:36:38.054Z,76.98
2022-11-15T09:39:10.487Z,76.84
2022-11-15T09:42:07.243Z,76.58
2022-11-15T09:44:54.451Z,76.53
2022-11-15T09:47:57.015Z,76.43
2022-11-15T09:50:39.083Z,76.32
2022-11-15T09:53:16.272Z,76.19
2022-11-15T09:55:58.889Z,76.00
2022-11-15T09:58:39.932Z,75.48
2022-11-15T10:01:19.332Z,75.54
2022-11-15T10:03:51.131Z,75.58
2022-11-15T10:06:27.351Z,75.46
2022-11-15T10:09:04.165Z,75.47
2022-11-15T10:11:39.160Z,75.35
2022-11-15T10:14:17.351Z,75.04
2022-11-15T10:17:11.899Z,75.03
2022-11-15T10:19:54.858Z,74.97
2022-11-15T10:22:32.560Z,74.50
2022-11-15T10:25:20.650Z,74.72
2022-11-15T10:27:57.594Z,74.51
2022-11-15T10:30:35.338Z,74.09
2022-11-15T10:33:19.918Z,74.39
2022-11-15T10:36:11.681Z,74.25
2022-11-15T10:38:55.536Z,74.12
2022-11-15T10:41:37.480Z,73.54
2022-11-15T10:44:32.410Z,73.62
2022-11-15T10:47:38.866Z,73.72
2022-11-15T10:50:32.892Z,73.76
2022-11-15T10:53:05.230Z,73.23
2022-11-15T10:55:37.645Z,72.98
2022-11-15T10:58:27.015Z,73.05
2022-11-15T11:01:10.624Z,72.64
2022-11-15T11:03:43.496Z,72.12
2022-11-15T11:06:17.318Z,72.36
2022-11-15T11:09:00.179Z,72.76
2022-11-15T11:11:49.391Z,72.44
2022-11-15T11:14:26.911Z,72.42
2022-11-15T11:17:06.007Z,72.20
2022-11-15T11:20:02.780Z,72.08
2022-11-15T11:22:41.974Z,71.72
2022-11-15T11:25:26.146Z,71.60
2022-11-15T11:28:16.988Z,71.56
2022-11-15T11:30:59.337Z,71.91
2022-11-15T11:33:35.819Z,71.62
2022-11-15T11:36:19.469Z,71.31
2022-11-15T11:39:02.566Z,71.44
2022-11-15T11:42:04.805Z,71.69
2022-11-15T11:44:45.885Z,70.58
2022-11-15T11:47:22.566Z,70.64
2022-11-15T11:49:58.638Z,70.21
2022-11-15T11:52:36.781Z,69.95
2022-11-15T11:55:17.947Z,70.23
2022-11-15T11:57:58.606Z,70.19
2022-11-15T12:00:34.611Z,70.50
2022-11-15T12:03:14.340Z,69.88
2022-11-15T12:05:51.177Z,69.72
2022-11-15T12:08:34.358Z,69.84
2022-11-15T12:11:15.938Z,69.92
2022-11-15T12:13:50.767Z,69.57
2022-11-15T12:16:28.583Z,67.71
2022-11-15T12:19:04.163Z,67.68
2022-11-15T12:21:44.135Z,68.01
2022-11-15T12:24:21.710Z,67.66
2022-11-15T12:26:59.401Z,67.62
2022-11-15T12:29:35.731Z,68.47
2022-11-15T12:32:33.953Z,68.49
2022-11-15T12:35:21.917Z,68.82
2022-11-15T12:37:57.240Z,67.31
2022-11-15T12:40:38.542Z,68.53
2022-11-15T12:43:41.996Z,67.68
2022-11-15T12:46:24.665Z,67.85
2022-11-15T12:49:01.736Z,67.95
2022-11-15T12:52:08.083Z,68.23
2022-11-15T12:55:33.630Z,67.43
2022-11-15T12:58:31.450Z,68.73
2022-11-15T13:01:34.328Z,68.75
2022-11-15T13:04:28.929Z,68.77
2022-11-15T13:07:04.135Z,67.82
2022-11-15T13:09:57.126Z,67.76
2022-11-15T13:12:53.212Z,68.38
2022-11-15T13:15:47.948Z,68.35
2022-11-15T13:18:41.699Z,68.96
2022-11-15T13:21:43.167Z,69.25
2022-11-15T13:24:21.045Z,69.60
2022-11-15T13:26:53.080Z,69.54
2022-11-15T13:29:25.026Z,69.47
2022-11-15T13:31:56.799Z,69.01
2022-11-15T13:34:51.147Z,69.48
2022-11-15T13:37:34.653Z,69.52
2022-11-15T13:40:25.297Z,69.93
2022-11-15T13:43:04.397Z,70.18
2022-11-15T13:45:37.111Z,70.63
2022-11-15T13:48:12.388Z,70.87
2022-11-15T13:50:44.300Z,71.17
2022-11-15T13:53:16.165Z,71.70
2022-11-15T13:55:47.962Z,72.13
2022-11-15T13:58:24.150Z,72.12
2022-11-15T14:01:05.258Z,72.80
2022-11-15T14:03:48.870Z,73.24
2022-11-15T14:06:23.482Z,73.19
2022-11-15T14:09:33.903Z,73.89
2022-11-15T14:12:26.496Z,73.97
2022-11-15T14:14:58.386Z,74.66
2022-11-15T14:17:45.773Z,74.26
2022-11-15T14:20:35.693Z,74.20
2022-11-15T14:23:20.845Z,75.02
2022-11-15T14:25:58.596Z,75.56
2022-11-15T14:28:38.417Z,75.97
2022-11-15T14:31:15.350Z,76.63
2022-11-15T14:33:46.986Z,76.66
2022-11-15T14:36:20.771Z,76.12
2022-11-15T14:38:52.617Z,76.12
2022-11-15T14:41:27.480Z,76.79
2022-11-15T14:43:59.147Z,76.22
2022-11-15T14:46:30.843Z,76.76
2022-11-15T14:49:02.477Z,77.67
2022-11-15T14:51:35.118Z,76.70
2022-11-15T14:54:07.118Z,77.74
2022-11-15T14:56:38.872Z,78.30
2022-11-15T14:59:10.463Z,77.62
2022-11-15T15:01:42.275Z,77.86
2022-11-15T15:04:14.384Z,78.81
2022-11-15T15:06:46.238Z,77.71
2022-11-15T15:09:17.935Z,78.40
2022-11-15T15:11:49.761Z,78.34
2022-11-15T15:14:21.479Z,78.35
2022-11-15T15:16:53.113Z,78.99
2022-11-15T15:19:26.290Z,79.14
2022-11-15T15:21:58.036Z,78.99
2022-11-15T15:24:29.842Z,78.84
2022-11-15T15:27:01.682Z,79.28
2022-11-15T15:29:33.331Z,78.78
2022-11-15T15:32:05.131Z,78.69
2022-11-15T15:34:36.780Z,79.69
2022-11-15T15:37:21.302Z,78.98
2022-11-15T15:39:53.146Z,79.07
2022-11-15T15:42:25.431Z,78.72
2022-11-15T15:44:57.191Z,78.92
2022-11-15T15:47:29.304Z,78.78
2022-11-15T15:50:01.145Z,78.61
2022-11-15T15:52:32.814Z,78.70
2022-11-15T15:55:04.538Z,79.18
2022-11-15T15:57:38.238Z,79.12
2022-11-15T16:00:12.989Z,79.55
2022-11-15T16:02:45.155Z,79.69
2022-11-15T16:05:18.408Z,79.61
2022-11-15T16:07:51.744Z,80.08
2022-11-15T16:10:28.936Z,80.73
2022-11-15T16:13:01.090Z,80.80
2022-11-15T16:15:34.330Z,81.18
2022-11-15T16:18:09.136Z,81.04
2022-11-15T16:20:43.634Z,80.76
2022-11-15T16:23:17.185Z,81.29
2022-11-15T16:25:51.522Z,81.98
2022-11-15T16:28:25.738Z,81.53
2022-11-15T16:31:05.983Z,81.42
2022-11-15T16:33:37.685Z,81.40
2022-11-15T16:36:16.976Z,81.65
2022-11-15T16:38:48.809Z,81.70
2022-11-15T16:41:20.875Z,82.22
2022-11-15T16:43:52.926Z,82.45
2022-11-15T16:46:26.302Z,82.72
2022-11-15T16:48:58.268Z,82.37
2022-11-15T16:51:30.011Z,82.22
2022-11-15T16:54:01.804Z,81.68
2022-11-15T16:56:33.862Z,81.45
2022-11-15T16:59:05.886Z,81.76
2022-11-15T17:01:46.985Z,82.39
2022-11-15T17:04:18.379Z,82.53
2022-11-15T17:06:48.918Z,82.58
2022-11-15T17:09:24.757Z,82.14
2022-11-15T17:11:56.857Z,81.89
2022-11-15T17:14:29.936Z,82.69
2022-11-15T17:17:02.703Z,82.26
2022-11-15T17:19:34.805Z,81.76
2022-11-15T17:22:06.523Z,81.97
2022-11-15T17:24:38.322Z,82.36
2022-11-15T17:27:10.107Z,81.98
2022-11-15T17:29:45.166Z,81.86
2022-11-15T17:32:16.908Z,82.07
2022-11-15T17:34:49.223Z,82.21
2022-11-15T17:37:20.911Z,81.93
2022-11-15T17:39:52.586Z,81.80
2022-11-15T17:42:24.248Z,81.92
2022-11-15T17:44:56.004Z,81.77
2022-11-15T17:47:27.714Z,81.80
2022-11-15T17:49:59.508Z,81.84
2022-11-15T17:52:31.155Z,82.01
2022-11-15T17:55:02.910Z,82.33
2022-11-15T17:57:34.631Z,82.03
2022-11-15T18:00:11.068Z,82.09
2022-11-15T18:02:42.732Z,81.97
2022-11-15T18:05:14.528Z,82.08
2022-11-15T18:07:46.209Z,82.57
2022-11-15T18:10:23.172Z,82.17
2022-11-15T18:12:55.831Z,82.35
2022-11-15T18:15:27.792Z,82.07
2022-11-15T18:18:00.953Z,82.30
2022-11-15T18:20:33.429Z,82.23
2022-11-15T18:23:07.212Z,82.15
2022-11-15T18:25:38.940Z,82.34
2022-11-15T18:28:10.649Z,82.05
2022-11-15T18:30:44.700Z,82.58
2022-11-15T18:33:16.452Z,82.98
2022-11-15T18:35:48.638Z,82.54
2022-11-15T18:38:20.323Z,82.83
2022-11-15T18:40:52.003Z,83.04
2022-11-15T18:43:23.651Z,82.97
2022-11-15T18:45:55.384Z,82.61
2022-11-15T18:48:30.021Z,82.45
2022-11-15T18:51:05.748Z,82.84
2022-11-15T18:53:38.397Z,82.48
2022-11-15T18:56:12.114Z,82.82
2022-11-15T18:58:48.690Z,82.65
2022-11-15T19:01:32.171Z,82.49
2022-11-15T19:04:23.939Z,82.52
2022-11-15T19:06:55.681Z,82.68
2022-11-15T19:09:32.832Z,82.42
2022-11-15T19:12:05.336Z,82.49
2022-11-15T19:14:38.180Z,82.55
2022-11-15T19:17:10.111Z,82.78
2022-11-15T19:19:41.815Z,82.61
2022-11-15T19:22:13.494Z,83.44
2022-11-15T19:24:50.284Z,83.00
2022-11-15T19:27:23.345Z,82.84
2022-11-15T19:29:55.143Z,83.05
2022-11-15T19:32:27.962Z,82.85
2022-11-15T19:34:59.674Z,82.74
2022-11-15T19:37:45.499Z,82.49
2022-11-15T19:40:40.583Z,82.62
2022-11-15T19:43:44.383Z,82.73
2022-11-15T19:46:45.529Z,82.95
2022-11-15T19:49:53.889Z,83.43
2022-11-15T19:52:38.224Z,83.04
2022-11-15T19:55:11.273Z,83.70
2022-11-15T19:57:42.879Z,83.37
2022-11-15T20:00:15.873Z,83.10
2022-11-15T20:02:47.850Z,83.21
2022-11-15T20:05:24.684Z,83.01
2022-11-15T20:08:04.871Z,83.09
2022-11-15T20:10:48.810Z,83.00
2022-11-15T20:13:24.015Z,82.91
2022-11-15T20:16:02.436Z,82.99
2022-11-15T20:18:37.045Z,82.93
2022-11-15T20:21:15.085Z,82.83
2022-11-15T20:23:53.116Z,82.91
2022-11-15T20:26:26.923Z,82.83
2022-11-15T20:29:01.334Z,82.71
2022-11-15T20:31:47.910Z,82.65
2022-11-15T20:34:22.564Z,82.68
2022-11-15T20:36:57.532Z,82.65
2022-11-15T20:39:32.566Z,82.84
2022-11-15T20:42:04.532Z,82.74
2022-11-15T20:44:36.205Z,82.94
2022-11-15T20:47:10.502Z,82.83
2022-11-15T20:49:46.075Z,83.24
2022-11-15T20:52:20.954Z,83.11
2022-11-15T20:54:52.697Z,83.41
2022-11-15T20:57:24.460Z,83.56
2022-11-15T20:59:56.534Z,83.56
2022-11-15T21:02:29.155Z,83.55
2022-11-15T21:05:01.355Z,83.54
2022-11-15T21:07:33.077Z,84.02
2022-11-15T21:10:29.123Z,84.28
2022-11-15T21:13:03.223Z,84.19
2022-11-15T21:15:36.961Z,84.78
2022-11-15T21:18:09.203Z,84.49
2022-11-15T21:20:40.839Z,84.11
2022-11-15T21:23:13.058Z,84.11
2022-11-15T21:25:52.775Z,84.00
2022-11-15T21:28:24.656Z,84.31
2022-11-15T21:30:58.303Z,83.93
2022-11-15T21:33:38.194Z,84.31
2022-11-15T21:36:13.743Z,84.23
2022-11-15T21:38:48.857Z,84.05
2022-11-15T21:41:22.060Z,84.13
2022-11-15T21:43:53.807Z,83.85
2022-11-15T21:46:25.959Z,83.83
2022-11-15T21:48:58.292Z,84.16
2022-11-15T21:51:31.461Z,84.20
2022-11-15T21:54:07.024Z,84.22
2022-11-15T21:56:38.730Z,84.46
2022-11-15T21:59:10.498Z,84.63
2022-11-15T22:01:59.688Z,84.50
2022-11-15T22:04:32.769Z,84.55
2022-11-15T22:07:07.720Z,84.63
2022-11-15T22:09:40.477Z,84.63
2022-11-15T22:12:14.769Z,84.55
2022-11-15T22:14:46.713Z,84.90
2022-11-15T22:17:18.645Z,84.95
2022-11-15T22:19:53.708Z,84.64
2022-11-15T22:22:25.623Z,84.71
2022-11-15T22:24:57.823Z,84.58
2022-11-15T22:27:29.672Z,84.95
2022-11-15T22:30:10.851Z,84.85
2022-11-15T22:32:44.327Z,84.67
2022-11-15T22:35:17.805Z,84.63
2022-11-15T22:37:49.614Z,84.60
2022-11-15T22:40:27.768Z,84.35
2022-11-15T22:42:59.813Z,84.62
2022-11-15T22:45:31.744Z,84.47
2022-11-15T22:48:06.611Z,84.42
2022-11-15T22:50:38.414Z,84.50
2022-11-15T22:53:12.818Z,84.39
2022-11-15T22:55:44.998Z,84.34
2022-11-15T22:58:19.566Z,84.48
2022-11-15T23:00:56.261Z,84.32
2022-11-15T23:03:32.521Z,84.39
2022-11-15T23:06:11.816Z,84.42
2022-11-15T23:08:43.676Z,84.54
2022-11-15T23:11:33.347Z,84.39
2022-11-15T23:14:06.420Z,84.39
2022-11-15T23:16:39.845Z,84.29
2022-11-15T23:19:13.466Z,84.26
2022-11-15T23:22:04.623Z,84.16
2022-11-15T23:24:36.662Z,84.13
2022-11-15T23:27:09.542Z,84.17
2022-11-15T23:29:55.193Z,84.24
2022-11-15T23:32:46.051Z,84.14
2022-11-15T23:35:18.014Z,84.26
2022-11-15T23:37:49.807Z,84.12
2022-11-15T23:40:29.350Z,84.28
2022-11-15T23:43:01.800Z,84.21
2022-11-15T23:45:38.762Z,84.33
2022-11-15T23:48:10.758Z,84.12
2022-11-15T23:50:42.542Z,84.14
2022-11-15T23:53:14.358Z,84.04
2022-11-15T23:55:54.686Z,84.02
2022-11-15T23:58:28.777Z,84.12
